sensor_id;sensor_type;location;lat;lon;timestamp;P1;durP1;ratioP1;P2;durP2;ratioP2
38190;SDS011;25191;47.510;19.124;2022-12-18T00:04:30;14.93;;;9.10;;
38190;SDS011;25191;47.510;19.124;2022-12-18T00:14:31;13.70;;;9.05;;
38190;SDS011;25191;47.510;19.124;2022-12-18T00:24:31;14.25;;;8.85;;
38190;SDS011;25191;47.510;19.124;2022-12-18T00:34:31;13.70;;;8.30;;
38190;SDS011;25191;47.510;19.124;2022-12-18T00:44:32;15.23;;;9.32;;
38190;SDS011;25191;47.510;19.124;2022-12-18T00:54:32;14.60;;;8.90;;
38190;SDS011;25191;47.510;19.124;2022-12-18T01:04:33;12.25;;;8.18;;
38190;SDS011;25191;47.510;19.124;2022-12-18T01:14:34;14.13;;;8.85;;
38190;SDS011;25191;47.510;19.124;2022-12-18T01:24:34;11.57;;;8.13;;
38190;SDS011;25191;47.510;19.124;2022-12-18T01:34:36;12.43;;;7.93;;
38190;SDS011;25191;47.510;19.124;2022-12-18T01:54:49;11.77;;;7.63;;
38190;SDS011;25191;47.510;19.124;2022-12-18T02:04:51;11.88;;;7.88;;
38190;SDS011;25191;47.510;19.124;2022-12-18T02:35:30;11.43;;;7.60;;
38190;SDS011;25191;47.510;19.124;2022-12-18T02:45:33;10.98;;;7.82;;
38190;SDS011;25191;47.510;19.124;2022-12-18T03:05:50;12.60;;;7.88;;
38190;SDS011;25191;47.510;19.124;2022-12-18T03:15:52;11.35;;;7.72;;
38190;SDS011;25191;47.510;19.124;2022-12-18T03:35:58;10.77;;;7.43;;
38190;SDS011;25191;47.510;19.124;2022-12-18T03:46:05;9.77;;;6.68;;
38190;SDS011;25191;47.510;19.124;2022-12-18T03:56:12;12.03;;;6.93;;
38190;SDS011;25191;47.510;19.124;2022-12-18T04:06:16;11.52;;;7.50;;
38190;SDS011;25191;47.510;19.124;2022-12-18T04:16:18;11.55;;;7.10;;
38190;SDS011;25191;47.510;19.124;2022-12-18T04:26:18;11.00;;;7.22;;
38190;SDS011;25191;47.510;19.124;2022-12-18T04:36:19;11.57;;;7.38;;
38190;SDS011;25191;47.510;19.124;2022-12-18T04:46:52;11.93;;;7.45;;
38190;SDS011;25191;47.510;19.124;2022-12-18T04:56:52;12.07;;;7.68;;
38190;SDS011;25191;47.510;19.124;2022-12-18T05:06:52;9.88;;;6.85;;
38190;SDS011;25191;47.510;19.124;2022-12-18T05:16:53;11.43;;;7.20;;
38190;SDS011;25191;47.510;19.124;2022-12-18T05:26:53;9.70;;;6.53;;
38190;SDS011;25191;47.510;19.124;2022-12-18T05:36:54;10.45;;;6.40;;
38190;SDS011;25191;47.510;19.124;2022-12-18T05:46:55;10.77;;;6.88;;
38190;SDS011;25191;47.510;19.124;2022-12-18T05:56:57;10.90;;;7.05;;
38190;SDS011;25191;47.510;19.124;2022-12-18T06:06:58;11.30;;;6.60;;
38190;SDS011;25191;47.510;19.124;2022-12-18T06:16:59;11.35;;;6.72;;
38190;SDS011;25191;47.510;19.124;2022-12-18T06:27:00;11.80;;;6.88;;
38190;SDS011;25191;47.510;19.124;2022-12-18T06:37:01;14.80;;;8.32;;
38190;SDS011;25191;47.510;19.124;2022-12-18T06:47:03;13.35;;;8.02;;
38190;SDS011;25191;47.510;19.124;2022-12-18T06:57:03;13.30;;;8.23;;
38190;SDS011;25191;47.510;19.124;2022-12-18T07:07:04;13.98;;;9.00;;
38190;SDS011;25191;47.510;19.124;2022-12-18T07:17:04;12.32;;;8.23;;
38190;SDS011;25191;47.510;19.124;2022-12-18T07:27:05;14.10;;;8.13;;
38190;SDS011;25191;47.510;19.124;2022-12-18T07:37:08;24.30;;;10.40;;
38190;SDS011;25191;47.510;19.124;2022-12-18T07:47:09;18.35;;;10.52;;
38190;SDS011;25191;47.510;19.124;2022-12-18T07:57:10;17.17;;;9.73;;
38190;SDS011;25191;47.510;19.124;2022-12-18T08:17:15;17.05;;;9.68;;
38190;SDS011;25191;47.510;19.124;2022-12-18T08:27:15;12.98;;;8.02;;
38190;SDS011;25191;47.510;19.124;2022-12-18T08:37:17;12.23;;;8.00;;
38190;SDS011;25191;47.510;19.124;2022-12-18T08:47:17;14.73;;;8.63;;
38190;SDS011;25191;47.510;19.124;2022-12-18T08:57:19;13.18;;;8.48;;
38190;SDS011;25191;47.510;19.124;2022-12-18T09:07:20;11.77;;;8.05;;
38190;SDS011;25191;47.510;19.124;2022-12-18T09:17:21;12.73;;;7.72;;
38190;SDS011;25191;47.510;19.124;2022-12-18T09:27:21;12.98;;;7.60;;
38190;SDS011;25191;47.510;19.124;2022-12-18T09:37:21;12.57;;;7.70;;
38190;SDS011;25191;47.510;19.124;2022-12-18T09:57:37;13.32;;;8.50;;
38190;SDS011;25191;47.510;19.124;2022-12-18T10:07:55;14.90;;;8.52;;
38190;SDS011;25191;47.510;19.124;2022-12-18T10:28:38;15.90;;;8.52;;
38190;SDS011;25191;47.510;19.124;2022-12-18T10:38:40;13.50;;;8.70;;
38190;SDS011;25191;47.510;19.124;2022-12-18T10:48:48;13.30;;;8.60;;
38190;SDS011;25191;47.510;19.124;2022-12-18T10:59:02;15.25;;;9.27;;
38190;SDS011;25191;47.510;19.124;2022-12-18T11:09:04;16.80;;;10.15;;
38190;SDS011;25191;47.510;19.124;2022-12-18T11:29:39;15.25;;;9.45;;
38190;SDS011;25191;47.510;19.124;2022-12-18T11:39:41;13.82;;;9.57;;
38190;SDS011;25191;47.510;19.124;2022-12-18T11:49:51;18.65;;;10.52;;
38190;SDS011;25191;47.510;19.124;2022-12-18T12:10:27;19.58;;;11.13;;
38190;SDS011;25191;47.510;19.124;2022-12-18T12:41:06;16.55;;;9.50;;
38190;SDS011;25191;47.510;19.124;2022-12-18T12:51:34;18.38;;;9.25;;
38190;SDS011;25191;47.510;19.124;2022-12-18T13:01:40;17.92;;;9.23;;
38190;SDS011;25191;47.510;19.124;2022-12-18T13:11:49;13.20;;;8.38;;
38190;SDS011;25191;47.510;19.124;2022-12-18T13:22:25;13.85;;;8.25;;
38190;SDS011;25191;47.510;19.124;2022-12-18T13:32:32;11.10;;;7.90;;
38190;SDS011;25191;47.510;19.124;2022-12-18T13:42:37;15.10;;;8.13;;
38190;SDS011;25191;47.510;19.124;2022-12-18T13:52:57;11.70;;;7.60;;
38190;SDS011;25191;47.510;19.124;2022-12-18T14:02:58;12.07;;;7.57;;
38190;SDS011;25191;47.510;19.124;2022-12-18T14:13:03;12.27;;;7.57;;
38190;SDS011;25191;47.510;19.124;2022-12-18T14:23:24;27.17;;;7.95;;
38190;SDS011;25191;47.510;19.124;2022-12-18T14:33:36;35.15;;;16.65;;
38190;SDS011;25191;47.510;19.124;2022-12-18T14:43:39;26.02;;;13.90;;
38190;SDS011;25191;47.510;19.124;2022-12-18T14:53:42;20.48;;;12.35;;
38190;SDS011;25191;47.510;19.124;2022-12-18T15:03:48;23.73;;;12.15;;
38190;SDS011;25191;47.510;19.124;2022-12-18T15:13:49;19.95;;;11.18;;
38190;SDS011;25191;47.510;19.124;2022-12-18T15:23:52;23.48;;;12.02;;
38190;SDS011;25191;47.510;19.124;2022-12-18T15:43:56;23.33;;;12.63;;
38190;SDS011;25191;47.510;19.124;2022-12-18T15:53:58;22.43;;;11.90;;
38190;SDS011;25191;47.510;19.124;2022-12-18T16:04:01;23.73;;;13.02;;
38190;SDS011;25191;47.510;19.124;2022-12-18T16:14:02;19.30;;;12.43;;
38190;SDS011;25191;47.510;19.124;2022-12-18T16:24:03;20.15;;;11.52;;
38190;SDS011;25191;47.510;19.124;2022-12-18T16:34:10;21.27;;;11.40;;
38190;SDS011;25191;47.510;19.124;2022-12-18T16:44:11;16.92;;;11.00;;
38190;SDS011;25191;47.510;19.124;2022-12-18T16:54:12;14.25;;;10.23;;
38190;SDS011;25191;47.510;19.124;2022-12-18T17:04:14;15.73;;;10.13;;
38190;SDS011;25191;47.510;19.124;2022-12-18T17:14:17;17.38;;;9.68;;
38190;SDS011;25191;47.510;19.124;2022-12-18T17:24:20;15.70;;;9.80;;
38190;SDS011;25191;47.510;19.124;2022-12-18T17:34:21;16.08;;;9.70;;
38190;SDS011;25191;47.510;19.124;2022-12-18T17:44:22;14.52;;;9.88;;
38190;SDS011;25191;47.510;19.124;2022-12-18T17:54:23;14.65;;;9.48;;
38190;SDS011;25191;47.510;19.124;2022-12-18T18:04:24;17.73;;;10.57;;
38190;SDS011;25191;47.510;19.124;2022-12-18T18:14:28;22.97;;;13.30;;
38190;SDS011;25191;47.510;19.124;2022-12-18T18:24:29;21.15;;;11.90;;
38190;SDS011;25191;47.510;19.124;2022-12-18T18:34:31;17.02;;;10.88;;
38190;SDS011;25191;47.510;19.124;2022-12-18T18:44:31;22.40;;;11.48;;
38190;SDS011;25191;47.510;19.124;2022-12-18T18:54:32;21.73;;;11.80;;
38190;SDS011;25191;47.510;19.124;2022-12-18T19:04:34;21.42;;;12.15;;
38190;SDS011;25191;47.510;19.124;2022-12-18T19:14:35;21.07;;;12.30;;
38190;SDS011;25191;47.510;19.124;2022-12-18T19:24:36;37.38;;;12.45;;
38190;SDS011;25191;47.510;19.124;2022-12-18T19:34:39;22.85;;;12.02;;
38190;SDS011;25191;47.510;19.124;2022-12-18T19:44:39;22.97;;;13.23;;
38190;SDS011;25191;47.510;19.124;2022-12-18T19:54:43;20.90;;;12.93;;
38190;SDS011;25191;47.510;19.124;2022-12-18T20:04:43;22.58;;;12.40;;
38190;SDS011;25191;47.510;19.124;2022-12-18T20:14:44;19.48;;;11.85;;
38190;SDS011;25191;47.510;19.124;2022-12-18T20:24:46;31.17;;;15.65;;
38190;SDS011;25191;47.510;19.124;2022-12-18T20:34:47;25.88;;;15.48;;
38190;SDS011;25191;47.510;19.124;2022-12-18T20:44:50;27.90;;;16.63;;
38190;SDS011;25191;47.510;19.124;2022-12-18T20:54:51;26.92;;;16.80;;
38190;SDS011;25191;47.510;19.124;2022-12-18T21:04:51;25.83;;;15.98;;
38190;SDS011;25191;47.510;19.124;2022-12-18T21:14:53;27.52;;;17.08;;
38190;SDS011;25191;47.510;19.124;2022-12-18T21:24:54;26.50;;;16.30;;
38190;SDS011;25191;47.510;19.124;2022-12-18T21:34:55;26.75;;;16.33;;
38190;SDS011;25191;47.510;19.124;2022-12-18T21:44:55;28.98;;;16.58;;
38190;SDS011;25191;47.510;19.124;2022-12-18T21:54:57;26.95;;;16.23;;
38190;SDS011;25191;47.510;19.124;2022-12-18T22:04:57;26.67;;;16.80;;
38190;SDS011;25191;47.510;19.124;2022-12-18T22:14:58;27.40;;;16.38;;
38190;SDS011;25191;47.510;19.124;2022-12-18T22:24:58;25.73;;;16.85;;
38190;SDS011;25191;47.510;19.124;2022-12-18T22:35:00;23.77;;;15.93;;
38190;SDS011;25191;47.510;19.124;2022-12-18T22:45:04;26.05;;;16.40;;
38190;SDS011;25191;47.510;19.124;2022-12-18T22:55:05;24.27;;;15.82;;
38190;SDS011;25191;47.510;19.124;2022-12-18T23:05:13;23.75;;;15.23;;
38190;SDS011;25191;47.510;19.124;2022-12-18T23:15:13;23.48;;;15.30;;
38190;SDS011;25191;47.510;19.124;2022-12-18T23:25:13;25.73;;;14.88;;
38190;SDS011;25191;47.510;19.124;2022-12-18T23:35:14;23.00;;;14.23;;
38190;SDS011;25191;47.510;19.124;2022-12-18T23:45:16;21.52;;;13.85;;
38190;SDS011;25191;47.510;19.124;2022-12-18T23:55:16;22.65;;;13.85;;
